Terminal Aerodrome Forecast
Issued by NWS

Home | Current Version | Previous Version | Text Only | Print | Product List | Glossary On
Versions: 1 2 3 4 5 6 7 8 9 10 11 12 13 14 15 16 17 18
000
FTUS45 KABQ 242137 AAA
TAFAEG
TAF AMD
KAEG 242137Z 2422/2518 15011KT P6SM VCSH SCT110 SCT200
      TEMPO 2422/2424 VRB20G30KT -TSRA BKN090CB
     FM250300 03009KT P6SM VCSH FEW040 BKN110
     FM250600 04006KT P6SM BKN110
     FM251700 03006KT P6SM FEW120=

USA.gov is the U.S. government's official web portal to all federal, state and local government web resources and services.